Time;durP1;ratioP1;P1;durP2;ratioP2;P2;SDS_P1;SDS_P2;PMS_P1;PMS_P2;Temp;Humidity;BMP_temperature;BMP_pressure;BME280_temperature;BME280_humidity;BME280_pressure;Samples;Min_cycle;Max_cycle;Signal;HPM_P1;HPM_P2
2023/06/07 00:00:53;;;;;;;10.57;6.03;;;;;;;14.55;80.57;101776.09;5087936;28;20043;-67
2023/06/07 00:03:19;;;;;;;10.98;5.55;;;;;;;14.55;80.88;101782.34;5118165;28;20055;-68
2023/06/07 00:05:45;;;;;;;14.20;6.28;;;;;;;14.47;80.78;101773.53;5117782;28;20034;-67
2023/06/07 00:08:11;;;;;;;14.23;6.43;;;;;;;14.46;80.87;101774.56;5099887;28;20486;-67
2023/06/07 00:10:36;;;;;;;10.70;5.93;;;;;;;14.44;81.29;101779.38;5118894;28;20028;-68
2023/06/07 00:13:03;;;;;;;12.85;6.47;;;;;;;14.38;81.32;101777.44;5119061;28;20030;-68
2023/06/07 00:15:29;;;;;;;11.55;6.50;;;;;;;14.35;81.35;101784.09;5120155;28;20093;-67
2023/06/07 00:17:59;;;;;;;11.23;6.07;;;;;;;14.35;81.35;101773.28;5103546;28;20044;-67
2023/06/07 00:20:25;;;;;;;12.52;6.50;;;;;;;14.14;81.59;101749.84;5119917;28;20048;-67
2023/06/07 00:22:55;;;;;;;13.90;7.40;;;;;;;14.27;81.83;101781.53;5120306;28;20058;-67
2023/06/07 00:25:24;;;;;;;10.52;6.03;;;;;;;14.26;81.74;101782.59;5120502;28;20032;-67
2023/06/07 00:27:50;;;;;;;11.15;6.20;;;;;;;14.24;81.73;101787.38;5118889;28;20071;-67
2023/06/07 00:30:19;;;;;;;14.95;6.05;;;;;;;14.18;81.90;101777.34;5119201;28;20027;-67
2023/06/07 00:32:45;;;;;;;14.00;7.00;;;;;;;13.97;82.17;101757.44;5118545;28;20031;-67
2023/06/07 00:35:11;;;;;;;13.23;6.05;;;;;;;14.08;82.18;101783.94;5118158;28;20031;-68
2023/06/07 00:37:36;;;;;;;11.82;6.32;;;;;;;14.08;82.15;101778.53;5119173;28;20077;-67
2023/06/07 00:40:03;;;;;;;12.88;6.85;;;;;;;14.05;82.45;101769.97;5119999;28;20027;-67
2023/06/07 00:42:29;;;;;;;19.50;8.52;;;;;;;14.10;82.74;101781.88;5101989;28;20039;-68
2023/06/07 00:44:54;;;;;;;17.45;8.07;;;;;;;14.17;83.36;101786.47;5119961;28;20031;-67
2023/06/07 00:47:20;;;;;;;13.38;7.28;;;;;;;14.08;83.84;101783.94;5119690;28;20055;-67
2023/06/07 00:49:45;;;;;;;14.65;7.55;;;;;;;14.06;83.88;101779.75;5119463;28;20479;-67
2023/06/07 00:52:12;;;;;;;17.02;8.75;;;;;;;13.98;84.68;101772.63;5102308;28;20042;-68
2023/06/07 00:54:38;;;;;;;13.73;7.63;;;;;;;13.99;84.78;101785.13;5119657;28;20058;-68
2023/06/07 00:57:04;;;;;;;14.63;7.90;;;;;;;13.91;85.16;101788.00;5116007;28;20028;-67
2023/06/07 00:59:30;;;;;;;15.70;7.88;;;;;;;13.96;85.23;101785.50;5118063;28;20024;-67
2023/06/07 01:01:55;;;;;;;18.00;9.02;;;;;;;14.01;85.63;101785.78;5113272;28;20019;-67
2023/06/07 01:04:24;;;;;;;16.70;9.40;;;;;;;14.03;85.69;101789.09;5115635;28;20032;-68
2023/06/07 01:06:53;;;;;;;17.98;8.68;;;;;;;14.03;85.69;101793.69;5118819;28;20114;-67
2023/06/07 01:09:20;;;;;;;19.73;10.20;;;;;;;14.06;86.18;101786.00;5118317;28;20028;-67
2023/06/07 01:11:49;;;;;;;22.45;10.65;;;;;;;14.12;87.02;101788.97;5122997;28;20046;-67
2023/06/07 01:14:15;;;;;;;18.60;10.65;;;;;;;14.15;87.04;101789.41;5119436;28;20020;-67
2023/06/07 01:16:43;;;;;;;18.17;10.38;;;;;;;14.14;87.77;101787.75;5118444;28;20384;-67
2023/06/07 01:19:17;;;;;;;21.02;10.88;;;;;;;14.16;88.44;101790.22;5119185;28;20035;-67
2023/06/07 01:21:44;;;;;;;21.77;10.90;;;;;;;14.13;88.64;101785.22;5119128;28;20108;-67
2023/06/07 01:24:10;;;;;;;23.50;11.25;;;;;;;14.12;88.96;101780.84;5118217;28;20107;-67
2023/06/07 01:26:37;;;;;;;25.63;11.05;;;;;;;14.10;89.42;101779.19;5118333;28;20051;-67
2023/06/07 01:29:05;;;;;;;23.45;11.95;;;;;;;14.20;89.19;101784.22;5119976;28;20415;-67
2023/06/07 01:31:35;;;;;;;24.42;11.45;;;;;;;14.23;89.35;101782.97;5119381;28;20445;-67
2023/06/07 01:34:01;;;;;;;24.40;11.05;;;;;;;14.21;89.70;101785.06;5118211;28;20027;-67
2023/06/07 01:36:29;;;;;;;25.42;10.88;;;;;;;14.16;89.90;101782.94;5121188;28;20053;-68
2023/06/07 01:38:55;;;;;;;22.48;11.00;;;;;;;14.12;90.11;101781.69;5122606;28;20032;-67
2023/06/07 01:41:22;;;;;;;25.23;11.27;;;;;;;14.11;90.54;101777.31;5122956;28;20040;-67
2023/06/07 01:43:48;;;;;;;27.17;11.48;;;;;;;14.19;91.08;101785.25;5123343;28;20043;-67
2023/06/07 01:46:15;;;;;;;23.02;11.50;;;;;;;14.08;91.07;101756.06;5123377;28;20028;-67
2023/06/07 01:48:41;;;;;;;24.45;11.95;;;;;;;14.29;91.21;101782.19;5122127;28;20030;-67
2023/06/07 01:51:06;;;;;;;24.15;11.95;;;;;;;14.32;91.02;101782.63;5122049;28;20083;-67
2023/06/07 01:53:32;;;;;;;24.10;11.57;;;;;;;14.35;91.50;101778.69;5122035;27;20076;-67
2023/06/07 01:56:27;;;;;;;21.38;11.80;;;;;;;14.41;91.94;101780.59;5116934;28;20038;-67
2023/06/07 01:59:08;;;;;;;22.90;11.55;;;;;;;14.42;92.67;101781.44;5099832;28;20053;-68
2023/06/07 02:01:33;;;;;;;23.10;10.85;;;;;;;14.44;92.44;101782.06;5132852;28;20015;-67
2023/06/07 02:04:00;;;;;;;27.85;11.63;;;;;;;14.43;92.44;101783.09;5119887;28;20031;-67
2023/06/07 02:06:32;;;;;;;22.35;11.82;;;;;;;14.32;92.69;101768.25;5102107;28;20520;-67
2023/06/07 02:09:04;;;;;;;19.33;10.93;;;;;;;14.43;92.73;101789.34;5120013;28;20085;-67
2023/06/07 02:11:31;;;;;;;25.17;11.52;;;;;;;14.29;92.79;101768.66;5123223;28;20105;-68
2023/06/07 02:13:58;;;;;;;22.50;11.20;;;;;;;14.41;93.32;101793.31;5121474;28;20440;-67
2023/06/07 02:16:36;;;;;;;26.75;12.40;;;;;;;14.42;93.31;101778.72;5122996;28;20035;-67
2023/06/07 02:19:06;;;;;;;21.55;12.18;;;;;;;14.40;93.23;101781.59;5128750;28;20084;-67
2023/06/07 02:21:36;;;;;;;28.98;12.40;;;;;;;14.38;93.55;101781.00;5123121;28;20048;-67
2023/06/07 02:24:03;;;;;;;25.60;12.68;;;;;;;14.39;93.35;101790.78;5122034;28;20118;-67
2023/06/07 02:26:29;;;;;;;29.75;12.65;;;;;;;14.41;92.97;101796.00;5121055;28;20039;-67
2023/06/07 02:28:54;;;;;;;20.33;11.57;;;;;;;14.42;93.09;101787.69;5122623;28;20038;-67
2023/06/07 02:31:23;;;;;;;26.95;12.57;;;;;;;14.41;92.84;101790.59;5120353;28;20036;-68
2023/06/07 02:33:49;;;;;;;24.60;11.77;;;;;;;14.35;93.78;101786.81;5120169;28;20028;-67
2023/06/07 02:36:15;;;;;;;19.98;11.45;;;;;;;14.37;93.39;101782.03;5121854;28;20027;-67
2023/06/07 02:38:41;;;;;;;21.63;11.27;;;;;;;14.40;92.80;101778.91;5122291;28;20114;-67
2023/06/07 02:41:07;;;;;;;21.15;11.45;;;;;;;14.43;92.57;101770.38;5121389;28;20047;-67
2023/06/07 02:43:32;;;;;;;21.23;10.98;;;;;;;14.77;91.29;101779.53;5122224;28;20028;-67
2023/06/07 02:45:57;;;;;;;23.63;12.07;;;;;;;14.86;91.18;101781.00;5121917;28;20043;-67
2023/06/07 02:48:23;;;;;;;25.73;11.25;;;;;;;15.02;90.71;101779.81;5121507;28;20023;-67
2023/06/07 02:50:48;;;;;;;23.02;11.35;;;;;;;15.21;89.62;101778.19;5084672;28;20023;-67
2023/06/07 02:53:14;;;;;;;21.58;11.05;;;;;;;15.28;89.50;101779.84;5121738;28;20472;-67
2023/06/07 02:55:39;;;;;;;24.27;10.57;;;;;;;15.58;87.72;101786.78;5120929;28;20031;-67
2023/06/07 02:58:05;;;;;;;24.80;10.75;;;;;;;15.89;86.71;101778.88;5120139;28;20027;-67
2023/06/07 03:00:31;;;;;;;19.38;10.52;;;;;;;16.19;85.65;101781.09;5103215;28;20114;-67
2023/06/07 03:02:57;;;;;;;22.65;10.43;;;;;;;16.34;84.72;101768.09;5120358;28;20479;-68
2023/06/07 03:05:26;;;;;;;18.13;9.88;;;;;;;16.64;83.44;101792.03;5121331;28;20022;-68
2023/06/07 03:07:52;;;;;;;22.13;10.35;;;;;;;16.83;82.59;101782.16;5118543;28;20053;-67
2023/06/07 03:10:18;;;;;;;17.55;9.55;;;;;;;17.19;81.71;101792.41;5120112;28;20113;-67
2023/06/07 03:12:43;;;;;;;21.55;9.70;;;;;;;17.43;80.49;101768.19;5116210;28;20091;-67
2023/06/07 03:15:09;;;;;;;18.13;9.05;;;;;;;17.76;79.55;101795.13;5119472;28;20032;-67
2023/06/07 03:17:36;;;;;;;17.95;9.68;;;;;;;18.06;78.27;101781.69;5120312;27;20108;-67
2023/06/07 03:20:06;;;;;;;21.05;9.60;;;;;;;18.24;77.29;101783.56;5121009;28;20095;-68
2023/06/07 03:22:31;;;;;;;15.10;8.93;;;;;;;18.60;76.05;101788.19;5120959;28;20051;-67
2023/06/07 03:24:57;;;;;;;17.67;8.35;;;;;;;18.76;74.96;101786.78;5121694;28;20087;-67
2023/06/07 03:27:23;;;;;;;20.75;9.88;;;;;;;19.10;73.62;101782.50;5128676;28;20047;-67
2023/06/07 03:29:50;;;;;;;16.58;8.98;;;;;;;19.45;72.20;101785.34;5124153;28;20091;-67
2023/06/07 03:32:15;;;;;;;14.32;8.27;;;;;;;19.57;70.91;101771.72;5101831;28;20028;-68
2023/06/07 03:34:42;;;;;;;18.10;8.30;;;;;;;19.91;69.62;101780.22;5115999;28;20030;-67
2023/06/07 03:37:08;;;;;;;13.60;8.73;;;;;;;20.11;68.42;101769.75;5117611;28;20084;-68
2023/06/07 03:39:35;;;;;;;15.38;7.90;;;;;;;20.39;67.42;101779.06;5117947;28;20367;-67
2023/06/07 03:42:01;;;;;;;18.42;8.10;;;;;;;20.55;66.68;101777.53;5119530;28;20027;-67
2023/06/07 03:44:26;;;;;;;17.27;8.38;;;;;;;20.68;66.31;101784.63;5101537;28;20501;-67
2023/06/07 03:46:52;;;;;;;15.35;8.60;;;;;;;20.76;65.56;101767.81;5120263;28;20494;-68
2023/06/07 03:49:17;;;;;;;13.90;7.78;;;;;;;20.94;64.87;101775.03;5120825;28;20035;-68
2023/06/07 03:51:43;;;;;;;15.85;8.40;;;;;;;20.97;64.97;101775.38;5119680;28;20042;-67
2023/06/07 03:54:09;;;;;;;16.10;7.93;;;;;;;20.80;65.20;101772.59;5117641;28;20518;-66
2023/06/07 03:56:34;;;;;;;12.60;7.43;;;;;;;20.88;64.77;101776.81;5119205;28;20020;-67
2023/06/07 03:59:02;;;;;;;15.23;7.35;;;;;;;21.23;63.78;101779.41;5100336;28;20031;-68
2023/06/07 04:01:28;;;;;;;16.52;7.75;;;;;;;21.55;62.38;101768.72;5114178;28;20110;-67
2023/06/07 04:03:53;;;;;;;15.27;7.35;;;;;;;22.31;60.76;101784.69;5115212;28;20103;-68
2023/06/07 04:06:24;;;;;;;17.35;7.32;;;;;;;22.40;59.68;101787.81;5116808;28;20035;-67
2023/06/07 04:08:52;;;;;;;14.23;7.40;;;;;;;22.24;59.09;101789.53;5118786;28;20409;-66
2023/06/07 04:11:19;;;;;;;18.80;7.78;;;;;;;21.92;59.03;101790.16;5116856;28;20024;-66
2023/06/07 04:13:44;;;;;;;12.05;7.03;;;;;;;21.50;60.25;101792.47;5115481;28;20121;-67
2023/06/07 04:16:11;;;;;;;13.40;7.90;;;;;;;21.68;59.69;101797.69;5127178;28;20028;-67
2023/06/07 04:18:36;;;;;;;14.45;7.07;;;;;;;21.95;58.96;101792.38;5115513;28;20027;-67
2023/06/07 04:21:01;;;;;;;16.85;7.88;;;;;;;21.98;58.39;101769.94;5117186;28;20500;-68
2023/06/07 04:23:27;;;;;;;19.65;8.23;;;;;;;21.89;58.42;101771.47;5119098;28;20118;-67
2023/06/07 04:25:55;;;;;;;15.02;8.23;;;;;;;22.10;58.02;101804.66;5118935;28;20026;-68
2023/06/07 04:28:24;;;;;;;15.98;8.25;;;;;;;21.90;58.24;101795.03;5100257;28;20043;-67
2023/06/07 04:30:51;;;;;;;15.80;7.43;;;;;;;21.58;59.38;101797.53;5115144;28;20055;-68
2023/06/07 04:33:19;;;;;;;16.42;7.38;;;;;;;21.86;58.56;101804.84;5118743;28;20088;-67
2023/06/07 04:35:45;;;;;;;17.17;7.82;;;;;;;21.86;58.50;101804.84;5125460;28;20018;-66
2023/06/07 04:38:15;;;;;;;20.85;7.78;;;;;;;21.28;60.43;101798.63;5117358;28;20051;-67
2023/06/07 04:40:42;;;;;;;12.00;6.78;;;;;;;21.37;60.80;101801.84;5116586;28;20364;-67
2023/06/07 04:43:10;;;;;;;18.33;8.07;;;;;;;22.07;58.92;101797.75;5113349;28;20028;-67
2023/06/07 04:45:40;;;;;;;20.17;7.43;;;;;;;21.86;59.35;101790.31;5118290;28;20559;-66
2023/06/07 04:48:07;;;;;;;13.05;6.93;;;;;;;22.40;58.46;101796.88;5118448;28;20045;-67
2023/06/07 04:50:33;;;;;;;16.98;7.68;;;;;;;22.10;58.60;101785.47;5119454;28;20020;-68
2023/06/07 04:53:03;;;;;;;14.88;7.55;;;;;;;21.91;59.28;101783.00;5118978;28;20032;-67
2023/06/07 04:55:30;;;;;;;16.63;8.30;;;;;;;22.19;58.88;101797.69;5116010;28;20527;-67
2023/06/07 04:57:59;;;;;;;13.38;7.63;;;;;;;21.90;59.46;101773.13;5116791;28;20122;-67
2023/06/07 05:00:25;;;;;;;21.33;7.60;;;;;;;21.99;60.02;101799.03;5113511;28;20023;-67
2023/06/07 05:02:52;;;;;;;14.80;7.10;;;;;;;21.86;60.63;101812.25;5113877;28;20036;-68
2023/06/07 05:05:19;;;;;;;13.95;7.25;;;;;;;21.44;61.95;101802.50;5118132;28;20094;-68
2023/06/07 05:07:44;;;;;;;15.00;6.97;;;;;;;21.88;61.06;101799.94;5100449;28;20124;-68
2023/06/07 05:10:10;;;;;;;14.85;7.30;;;;;;;21.61;61.70;101794.31;5118602;28;20114;-68
2023/06/07 05:12:36;;;;;;;14.57;6.57;;;;;;;21.74;61.86;101801.34;5120525;28;20020;-68
2023/06/07 05:15:02;;;;;;;18.10;7.00;;;;;;;21.44;62.52;101801.69;5120170;28;20094;-67
2023/06/07 05:17:28;;;;;;;13.95;6.30;;;;;;;21.60;62.41;101800.03;5119466;28;20027;-67
2023/06/07 05:19:55;;;;;;;17.73;6.90;;;;;;;21.34;63.02;101799.56;5119332;28;20042;-68
2023/06/07 05:22:21;;;;;;;13.18;6.65;;;;;;;21.16;63.94;101806.09;5121131;28;20051;-68
2023/06/07 05:24:47;;;;;;;14.93;6.60;;;;;;;21.11;64.19;101793.13;5120916;28;20032;-68
2023/06/07 05:27:14;;;;;;;11.75;6.80;;;;;;;21.71;63.10;101799.13;5119232;28;20031;-68
2023/06/07 05:29:39;;;;;;;13.95;6.82;;;;;;;21.58;63.37;101787.41;5121980;28;20023;-68
2023/06/07 05:32:05;;;;;;;15.45;6.68;;;;;;;22.03;62.60;101791.94;5122202;28;20073;-68
2023/06/07 05:34:31;;;;;;;13.45;6.40;;;;;;;22.41;61.88;101792.22;5103950;28;20032;-68
2023/06/07 05:36:56;;;;;;;15.07;6.65;;;;;;;22.41;61.39;101790.28;5120872;27;20085;-68
2023/06/07 05:39:21;;;;;;;13.60;6.13;;;;;;;22.60;61.21;101792.75;5098466;28;20034;-68
2023/06/07 05:41:47;;;;;;;9.75;5.85;;;;;;;22.79;60.84;101790.50;5122375;28;20037;-68
2023/06/07 05:44:12;;;;;;;12.27;6.03;;;;;;;22.30;61.61;101776.72;5127193;28;20023;-69
2023/06/07 05:46:38;;;;;;;13.98;5.82;;;;;;;22.20;61.88;101793.88;5124988;28;20204;-68
2023/06/07 05:49:04;;;;;;;16.00;6.00;;;;;;;22.28;61.25;101768.72;5119621;28;20051;-68
2023/06/07 05:51:30;;;;;;;12.10;5.72;;;;;;;22.66;61.01;101792.53;5117414;28;20028;-68
2023/06/07 05:53:55;;;;;;;15.32;5.85;;;;;;;22.51;61.15;101787.69;5121962;28;20092;-68
2023/06/07 05:56:21;;;;;;;10.38;5.28;;;;;;;22.79;60.69;101787.75;5119469;28;20578;-68
2023/06/07 05:58:49;;;;;;;11.90;5.45;;;;;;;23.17;59.83;101790.38;5105049;28;20039;-68
2023/06/07 06:01:15;;;;;;;15.35;5.60;;;;;;;23.08;59.31;101794.69;5122708;28;20015;-68
2023/06/07 06:03:40;;;;;;;15.38;5.68;;;;;;;22.83;59.60;101786.97;5122079;28;20027;-68
2023/06/07 06:06:17;;;;;;;13.07;5.50;;;;;;;22.73;58.14;101793.16;5121175;28;20437;-68
2023/06/07 06:08:44;;;;;;;10.88;4.68;;;;;;;22.89;58.71;101796.09;5120361;28;20059;-67
2023/06/07 06:11:12;;;;;;;9.15;4.75;;;;;;;23.29;57.05;101784.72;5116949;28;20028;-68
2023/06/07 06:13:39;;;;;;;12.68;5.20;;;;;;;23.51;56.25;101787.41;5119085;28;20028;-68
2023/06/07 06:16:05;;;;;;;11.63;4.70;;;;;;;23.68;55.28;101788.13;5121662;28;20174;-68
2023/06/07 06:18:31;;;;;;;9.02;4.85;;;;;;;24.21;54.59;101793.69;5122710;28;20020;-68
2023/06/07 06:20:57;;;;;;;12.35;4.57;;;;;;;24.21;53.45;101790.94;5121394;28;20050;-68
2023/06/07 06:23:24;;;;;;;10.32;5.10;;;;;;;24.13;52.54;101786.75;5120869;28;20049;-68
2023/06/07 06:25:50;;;;;;;8.65;4.53;;;;;;;23.81;51.71;101795.09;5121919;28;20028;-68
2023/06/07 06:28:16;;;;;;;12.90;5.05;;;;;;;24.27;50.95;101798.13;5120590;28;20028;-68
2023/06/07 06:30:42;;;;;;;11.40;5.05;;;;;;;24.13;49.91;101797.75;5120883;28;20028;-68
2023/06/07 06:33:08;;;;;;;8.15;4.43;;;;;;;24.29;49.88;101803.34;5120991;28;20099;-68
2023/06/07 06:35:33;;;;;;;9.07;4.57;;;;;;;24.49;48.66;101797.97;5120963;28;20103;-68
2023/06/07 06:38:00;;;;;;;12.70;5.00;;;;;;;24.32;48.24;101795.38;5121257;28;20096;-68
2023/06/07 06:40:26;;;;;;;11.48;5.30;;;;;;;24.59;48.04;101803.53;5114280;28;20038;-68
2023/06/07 06:42:52;;;;;;;12.85;5.13;;;;;;;24.75;47.29;101804.41;5120055;27;20410;-68
2023/06/07 06:45:18;;;;;;;13.32;4.90;;;;;;;24.96;46.88;101804.47;5121128;28;20059;-68
2023/06/07 06:47:43;;;;;;;13.15;5.25;;;;;;;24.50;46.78;101804.31;5122205;28;20036;-68
2023/06/07 06:50:11;;;;;;;10.93;4.78;;;;;;;24.54;46.53;101802.69;5124660;28;20380;-68
2023/06/07 06:52:41;;;;;;;10.68;4.80;;;;;;;24.96;46.42;101808.03;5121704;28;20027;-68
2023/06/07 06:55:07;;;;;;;11.35;5.10;;;;;;;25.35;45.67;101790.25;5120932;28;20057;-68
2023/06/07 06:57:32;;;;;;;12.80;4.68;;;;;;;25.40;45.27;101810.38;5119433;28;20019;-68
2023/06/07 07:00:11;;;;;;;11.05;5.25;;;;;;;25.62;44.91;101807.31;5121164;28;20034;-68
2023/06/07 07:02:37;;;;;;;11.52;4.90;;;;;;;25.33;45.10;101806.22;5120074;28;20102;-68
2023/06/07 07:05:05;;;;;;;12.43;5.15;;;;;;;25.09;44.78;101810.28;5117935;28;20055;-68
2023/06/07 07:07:30;;;;;;;15.05;5.10;;;;;;;25.14;44.52;101812.25;5114581;28;20055;-68
2023/06/07 07:09:56;;;;;;;14.95;5.40;;;;;;;24.93;44.94;101802.25;5119345;28;20561;-68
2023/06/07 07:12:21;;;;;;;17.02;5.13;;;;;;;25.39;43.99;101802.34;5119713;28;20507;-68
2023/06/07 07:14:47;;;;;;;15.00;5.10;;;;;;;25.46;43.87;101794.66;5119983;28;20028;-68
2023/06/07 07:17:13;;;;;;;14.32;5.00;;;;;;;25.37;43.71;101788.06;5117703;28;20051;-67
2023/06/07 07:19:38;;;;;;;15.95;4.82;;;;;;;25.66;43.07;101811.22;5117649;28;20042;-68
2023/06/07 07:22:04;;;;;;;12.80;5.35;;;;;;;25.69;43.28;101801.53;5116102;28;20362;-68
2023/06/07 07:24:30;;;;;;;13.85;5.45;;;;;;;25.76;43.31;101818.63;5118155;28;20039;-68
2023/06/07 07:26:57;;;;;;;17.67;5.20;;;;;;;25.77;43.10;101821.13;5120476;28;20023;-68
2023/06/07 07:29:22;;;;;;;9.98;5.35;;;;;;;25.36;47.81;101813.94;5121481;28;20032;-68
2023/06/07 07:31:47;;;;;;;14.50;5.47;;;;;;;24.97;47.93;101820.72;5120328;28;20034;-68
2023/06/07 07:34:13;;;;;;;10.50;4.95;;;;;;;24.93;47.33;101813.25;5130269;28;20566;-68
2023/06/07 07:36:39;;;;;;;9.77;5.07;;;;;;;24.43;49.39;101810.03;5128735;28;20083;-68
2023/06/07 07:39:05;;;;;;;12.65;5.60;;;;;;;24.21;50.52;101821.19;5120148;28;20033;-68
2023/06/07 07:41:34;;;;;;;11.57;5.10;;;;;;;23.98;50.75;101818.84;5122439;28;20020;-68
2023/06/07 07:44:00;;;;;;;12.90;5.47;;;;;;;23.79;50.98;101819.25;5120776;28;20024;-68
2023/06/07 07:46:26;;;;;;;13.30;5.53;;;;;;;23.65;51.18;101812.53;5121791;28;20098;-68
2023/06/07 07:48:51;;;;;;;15.30;5.85;;;;;;;23.58;51.90;101820.97;5122138;28;20059;-68
2023/06/07 07:51:16;;;;;;;14.60;5.70;;;;;;;23.66;52.04;101822.41;5121024;28;20034;-68
2023/06/07 07:53:42;;;;;;;14.43;5.90;;;;;;;23.43;52.80;101791.44;5102933;28;20382;-68
2023/06/07 07:56:08;;;;;;;12.95;5.68;;;;;;;23.49;53.55;101811.56;5122318;28;20523;-68
2023/06/07 07:58:35;;;;;;;13.52;6.53;;;;;;;23.40;54.38;101807.63;5128113;28;20031;-68
2023/06/07 08:01:01;;;;;;;16.40;6.32;;;;;;;23.22;55.19;101806.09;5121044;28;20031;-68
2023/06/07 08:03:27;;;;;;;13.13;5.85;;;;;;;23.27;55.13;101810.78;5121111;28;20030;-68
2023/06/07 08:05:53;;;;;;;15.52;6.10;;;;;;;23.25;54.93;101811.06;5120269;28;20032;-68
2023/06/07 08:08:19;;;;;;;12.85;5.78;;;;;;;23.26;54.74;101809.13;5119613;28;20395;-68
2023/06/07 08:10:46;;;;;;;15.00;6.45;;;;;;;23.14;55.42;101821.09;5118919;28;20058;-68
2023/06/07 08:13:12;;;;;;;13.43;5.70;;;;;;;23.01;56.47;101827.00;5119954;28;20039;-68
2023/06/07 08:15:38;;;;;;;14.85;5.88;;;;;;;22.80;55.83;101806.69;5119513;28;20024;-68
2023/06/07 08:18:04;;;;;;;11.82;5.47;;;;;;;22.88;55.55;101822.72;5121382;28;20493;-68
2023/06/07 08:20:30;;;;;;;14.98;6.47;;;;;;;22.88;55.80;101822.72;5119016;28;20055;-68
2023/06/07 08:22:55;;;;;;;13.77;5.75;;;;;;;22.72;55.89;101807.97;5120749;28;20027;-68
2023/06/07 08:25:21;;;;;;;17.23;6.50;;;;;;;22.87;56.16;101810.06;5122944;28;20039;-68
2023/06/07 08:27:46;;;;;;;12.43;6.00;;;;;;;22.81;56.00;101815.75;5107040;28;20032;-70
2023/06/07 08:30:12;;;;;;;13.60;5.40;;;;;;;22.80;55.81;101817.66;5128683;28;20027;-68
2023/06/07 08:32:39;;;;;;;11.25;5.93;;;;;;;22.90;55.36;101806.81;5122289;28;20057;-68
2023/06/07 08:35:06;;;;;;;15.18;5.68;;;;;;;22.95;55.36;101823.38;5132322;28;20114;-67
2023/06/07 08:37:32;;;;;;;10.85;5.97;;;;;;;22.97;55.42;101817.63;5133174;28;20012;-69
2023/06/07 08:39:57;;;;;;;17.95;5.85;;;;;;;23.03;55.45;101804.78;5113946;28;20095;-68
2023/06/07 08:42:23;;;;;;;14.73;6.18;;;;;;;23.00;56.50;101824.50;5102434;28;20024;-68
2023/06/07 08:44:49;;;;;;;14.98;6.22;;;;;;;22.94;57.61;101816.22;5123113;28;20023;-68
2023/06/07 08:47:16;;;;;;;11.40;5.45;;;;;;;23.11;57.47;101804.31;5124170;28;20052;-68
2023/06/07 08:49:44;;;;;;;16.95;6.00;;;;;;;23.04;58.07;101820.16;5124965;28;20028;-68
2023/06/07 08:52:10;;;;;;;14.48;6.38;;;;;;;23.00;60.17;101813.53;5124893;28;20114;-68
2023/06/07 08:54:45;;;;;;;14.32;6.05;;;;;;;23.04;60.04;101815.50;5124736;28;20035;-68
2023/06/07 08:57:16;;;;;;;16.63;6.10;;;;;;;22.95;61.38;101817.88;5124571;28;20024;-68
2023/06/07 08:59:43;;;;;;;13.40;6.47;;;;;;;22.77;62.71;101809.94;5123968;28;20024;-68
2023/06/07 09:02:09;;;;;;;11.63;6.00;;;;;;;22.78;62.45;101814.38;5106039;28;20069;-68
2023/06/07 09:04:35;;;;;;;13.90;6.38;;;;;;;22.81;61.83;101821.25;5124416;28;20111;-68
2023/06/07 09:07:04;;;;;;;14.82;6.35;;;;;;;22.96;60.46;101819.53;5127305;28;20035;-70
2023/06/07 09:09:29;;;;;;;16.40;6.47;;;;;;;22.96;60.27;101815.97;5124461;28;20028;-68
2023/06/07 09:11:55;;;;;;;13.07;6.00;;;;;;;23.01;60.24;101820.66;5105800;28;20491;-68
2023/06/07 09:14:21;;;;;;;12.85;6.82;;;;;;;23.15;59.37;101811.78;5121977;28;20485;-68
2023/06/07 09:16:57;;;;;;;12.70;6.18;;;;;;;23.30;58.78;101821.25;5105102;28;20209;-69
2023/06/07 09:19:37;;;;;;;12.75;6.18;;;;;;;23.40;58.30;101822.19;5121666;28;20032;-68
2023/06/07 09:22:05;;;;;;;12.90;5.80;;;;;;;23.07;58.60;101808.66;5121971;28;20212;-68
2023/06/07 09:24:32;;;;;;;11.95;5.80;;;;;;;23.10;59.27;101830.13;5104542;28;20489;-68
2023/06/07 09:27:00;;;;;;;16.20;6.18;;;;;;;23.08;58.47;101837.75;5117400;28;20057;-68
2023/06/07 09:29:28;;;;;;;11.73;5.43;;;;;;;23.31;57.70;101829.25;5122412;28;20057;-68
2023/06/07 09:32:15;;;;;;;16.33;6.32;;;;;;;23.19;57.28;101834.88;5122033;27;20314;-68
2023/06/07 09:34:40;;;;;;;14.25;5.45;;;;;;;23.42;56.39;101841.16;5123254;28;20023;-68
2023/06/07 09:37:06;;;;;;;14.52;6.07;;;;;;;23.35;57.17;101841.38;5121709;28;20400;-68
2023/06/07 09:39:32;;;;;;;13.15;6.13;;;;;;;23.19;58.13;101828.56;5122038;28;20040;-68
2023/06/07 09:41:58;;;;;;;13.68;5.20;;;;;;;23.46;56.27;101839.53;5128610;28;20088;-68
2023/06/07 09:44:28;;;;;;;15.25;6.32;;;;;;;23.40;56.98;101835.09;5109315;28;20032;-68
2023/06/07 09:46:55;;;;;;;16.85;6.30;;;;;;;23.19;57.53;101823.91;5123319;27;20024;-68
2023/06/07 09:49:28;;;;;;;15.05;5.75;;;;;;;23.36;57.51;101837.53;5122869;28;20019;-68
2023/06/07 09:51:54;;;;;;;15.05;6.03;;;;;;;23.44;56.01;101837.06;5122119;28;20024;-68
2023/06/07 09:54:40;;;;;;;15.80;5.75;;;;;;;23.64;55.01;101836.41;5116870;28;20030;-68
2023/06/07 09:57:11;;;;;;;14.05;6.10;;;;;;;23.65;54.17;101837.25;5119425;28;20076;-68
2023/06/07 09:59:57;;;;;;;13.85;5.82;;;;;;;23.70;55.25;101834.56;5122322;28;20448;-68
2023/06/07 10:02:24;;;;;;;12.25;5.25;;;;;;;23.87;53.98;101838.03;5106191;28;20023;-68
2023/06/07 10:04:50;;;;;;;14.63;4.60;;;;;;;24.30;51.66;101838.00;5124721;28;20102;-68
2023/06/07 10:07:18;;;;;;;16.23;5.72;;;;;;;24.06;51.90;101840.34;5123137;28;20050;-68
2023/06/07 10:09:45;;;;;;;15.85;5.43;;;;;;;24.21;50.28;101843.19;5121808;28;20403;-68
2023/06/07 10:12:13;;;;;;;13.93;4.90;;;;;;;24.53;49.23;101834.84;5122838;28;20400;-68
2023/06/07 10:14:40;;;;;;;19.33;5.97;;;;;;;24.70;49.11;101831.94;5122231;28;20028;-69
2023/06/07 10:17:13;;;;;;;15.18;5.57;;;;;;;24.88;48.39;101829.78;5123363;28;20476;-68
2023/06/07 10:19:47;;;;;;;9.60;4.47;;;;;;;24.59;48.33;101821.97;5121546;28;20038;-68
2023/06/07 10:22:19;;;;;;;14.13;5.32;;;;;;;24.65;48.98;101833.81;5123034;28;20024;-68
2023/06/07 10:25:12;;;;;;;15.77;6.32;;;;;;;24.17;51.01;101832.97;5122676;28;20016;-68
2023/06/07 10:27:48;;;;;;;19.38;6.25;;;;;;;24.27;51.47;101824.78;5120225;28;20053;-69
2023/06/07 10:30:16;;;;;;;16.30;5.60;;;;;;;24.21;50.98;101823.13;5130362;28;20031;-68
2023/06/07 10:32:42;;;;;;;14.13;5.47;;;;;;;23.99;52.11;101812.25;5123299;28;20030;-67
2023/06/07 10:35:10;;;;;;;16.77;6.50;;;;;;;23.89;52.45;101827.56;5122173;28;20031;-68
2023/06/07 10:37:40;;;;;;;14.18;5.53;;;;;;;23.62;54.11;101824.03;5120618;28;20403;-69
2023/06/07 10:40:14;;;;;;;12.45;5.85;;;;;;;23.48;54.15;101828.28;5121285;28;20080;-68
2023/06/07 10:42:41;;;;;;;15.45;5.78;;;;;;;;;;5123490;28;20012;-68
2023/06/07 10:45:11;;;;;;;13.43;5.30;;;;;;;23.10;55.08;101799.91;5121343;28;20043;-68
2023/06/07 10:47:38;;;;;;;15.55;6.28;;;;;;;23.24;55.37;101823.13;5120585;28;20031;-68
2023/06/07 10:50:03;;;;;;;16.80;6.00;;;;;;;22.98;55.87;101808.31;5120590;28;20038;-68
2023/06/07 10:52:29;;;;;;;18.67;6.78;;;;;;;23.09;56.29;101814.75;5121779;28;20419;-68
2023/06/07 10:54:55;;;;;;;13.27;6.05;;;;;;;23.09;56.20;101817.47;5102901;28;20634;-68
2023/06/07 10:57:40;;;;;;;14.57;6.07;;;;;;;23.19;55.55;101821.16;5122292;28;20023;-68
2023/06/07 11:00:31;;;;;;;15.45;6.10;;;;;;;23.14;55.12;101823.00;5120238;28;20035;-68
2023/06/07 11:03:10;;;;;;;13.80;6.15;;;;;;;23.27;54.86;101827.25;5121302;28;20024;-68
2023/06/07 11:05:52;;;;;;;10.57;5.47;;;;;;;23.07;55.95;101816.91;5121064;28;20020;-68
2023/06/07 11:08:28;;;;;;;16.52;6.75;;;;;;;22.91;58.24;101824.94;5121628;28;20028;-68
2023/06/07 11:11:01;;;;;;;12.35;6.30;;;;;;;22.85;59.33;101823.22;5121485;28;20107;-68
2023/06/07 11:13:38;;;;;;;11.90;6.20;;;;;;;22.85;58.38;101825.97;5120904;28;20051;-68
2023/06/07 11:16:22;;;;;;;17.38;6.97;;;;;;;22.95;59.34;101823.38;5127444;28;20028;-68
2023/06/07 11:19:08;;;;;;;10.82;5.85;;;;;;;22.87;59.39;101823.78;5122244;28;20035;-68